Orléans-Bricy (BA 123) Air Base

Airport
ICAO code: 
LFOJ
IATA Code: 
ORE
Summary
ICAO Region: 
EUR
Territory: 
Location: 
, Centre
Serving: 
Orleans
Elevation: 
412 ft
Coordinates: 
Aerial View: 
47° 59' 16.001" N, 1° 45' 38.002" E
Metar
Observation
LFOJ 060630Z AUTO 29007KT 9999 // BKN021 BKN026 OVC039 04/03 Q1015
Station
Orleans
Date/Time
2021-12-06 06:30:00
Wind direction
290°
Wind speed
07 kts
Lowest cloud amount
broken clouds
Temperature
4°C
Dew point
3°C
Humidity
93%
QNH
1015 hPa
Weather condition
n/a

Runways

Designator Length Width Surface Rops
7/25 2404 45 ASP No/No
Airport map: 
Aerial View: 

SKYbrary Partners:

Safety knowledge contributed by: